Time;durP1;ratioP1;P1;durP2;ratioP2;P2;SDS_P1;SDS_P2;PMS_P1;PMS_P2;Temp;Humidity;BMP_temperature;BMP_pressure;BME280_temperature;BME280_humidity;BME280_pressure;Samples;Min_cycle;Max_cycle;Signal;HPM_P1;HPM_P2
2023/04/27 00:00:19;;;;;;;;;;;;;;;30.58;62.98;100814.56;5120024;27;66088;-40
2023/04/27 00:02:49;;;;;;;;;;;;;;;30.61;63.89;100817.63;5127782;27;70680;-43
2023/04/27 00:05:19;;;;;;;;;;;;;;;30.64;63.63;100822.59;5119954;27;65766;-41
2023/04/27 00:07:50;;;;;;;;;;;;;;;30.69;63.55;100835.50;5123100;27;70476;-42
2023/04/27 00:10:20;;;;;;;;;;;;;;;30.70;62.87;100834.44;5124807;27;65801;-41
2023/04/27 00:12:50;;;;;;;;;;;;;;;30.72;62.86;100838.59;5129160;27;68572;-42
2023/04/27 00:15:20;;;;;;;;;;;;;;;30.76;63.32;100840.84;5128453;27;66412;-42
2023/04/27 00:17:50;;;;;;;;;;;;;;;30.80;63.09;100839.41;5130285;27;69333;-40
2023/04/27 00:20:20;;;;;;;;;;;;;;;30.82;62.73;100850.84;5104707;27;65173;-41
2023/04/27 00:22:51;;;;;;;;;;;;;;;30.85;62.83;100850.41;5092337;27;69948;-42
2023/04/27 00:25:21;;;;;;;;;;;;;;;30.88;62.77;100858.91;5123282;27;66888;-41
2023/04/27 00:27:51;;;;;;;;;;;;;;;30.92;63.26;100854.72;5123943;27;69474;-40
2023/04/27 00:30:21;;;;;;;;;;;;;;;30.93;63.80;100860.97;5121589;27;66815;-42
2023/04/27 00:32:54;;;;;;;;;;;;;;;30.97;64.52;100864.88;5109666;27;69113;-40
2023/04/27 00:35:24;;;;;;;;;;;;;;;30.99;64.30;100862.78;5131954;27;66643;-42
2023/04/27 00:37:54;;;;;;;;;;;;;;;31.02;64.38;100865.06;5130454;27;70237;-42
2023/04/27 00:40:25;;;;;;;;;;;;;;;31.04;64.62;100871.09;5093405;27;66711;-41
2023/04/27 00:42:55;;;;;;;;;;;;;;;31.04;62.78;100881.09;5125500;27;70488;-42
2023/04/27 00:45:26;;;;;;;;;;;;;;;31.07;62.46;100886.06;5114979;27;66549;-41
2023/04/27 00:47:57;;;;;;;;;;;;;;;31.09;61.17;100879.38;5110626;27;69914;-42
2023/04/27 00:50:31;;;;;;;;;;;;;;;31.12;60.82;100888.91;5119025;27;66008;-40
2023/04/27 00:53:01;;;;;;;;;;;;;;;31.15;60.17;100889.31;5137173;27;70546;-41
2023/04/27 00:55:31;;;;;;;;;;;;;;;31.20;59.49;100898.66;5129749;27;66543;-41
2023/04/27 00:58:05;;;;;;;;;;;;;;;31.21;59.81;100887.59;5114029;27;62673;-41
2023/04/27 01:00:36;;;;;;;;;;;;;;;31.24;59.12;100891.75;5117116;27;65572;-40
2023/04/27 01:03:06;;;;;;;;;;;;;;;31.28;59.15;100898.38;5130661;27;70467;-41
2023/04/27 01:05:37;;;;;;;;;;;;;;;31.30;58.73;100907.94;5109243;27;66499;-41
2023/04/27 01:08:08;;;;;;;;;;;;;;;31.33;58.58;100917.50;5105973;27;69793;-41
2023/04/27 01:10:40;;;;;;;;;;;;;;;31.35;58.48;100915.41;5104800;27;67686;-41
2023/04/27 01:13:10;;;;;;;;;;;;;;;31.37;58.63;100924.16;5126851;27;70466;-41
2023/04/27 01:15:40;;;;;;;;;;;;;;;31.38;58.00;100921.25;5128373;27;66567;-41
2023/04/27 01:18:11;;;;;;;;;;;;;;;31.41;58.23;100919.97;5108670;27;69998;-42
2023/04/27 01:20:42;;;;;;;;;;;;;;;31.43;58.29;100920.59;5101027;27;66607;-41
2023/04/27 01:23:12;;;;;;;;;;;;;;;31.46;57.67;100919.31;5106108;27;69973;-41
2023/04/27 01:25:45;;;;;;;;;;;;;;;31.50;57.65;100928.66;5105204;27;66157;-42
2023/04/27 01:28:15;;;;;;;;;;;;;;;31.51;58.08;100931.16;5112540;27;70088;-40
2023/04/27 01:30:45;;;;;;;;;;;;;;;31.54;57.80;100917.13;5129240;27;66275;-42
2023/04/27 01:33:15;;;;;;;;;;;;;;;31.57;57.54;100921.28;5104900;27;69778;-42
2023/04/27 01:35:48;;;;;;;;;;;;;;;31.59;57.87;100928.16;5114792;27;66858;-41
2023/04/27 01:38:19;;;;;;;;;;;;;;;31.60;57.46;100926.25;5108112;27;70738;-41
2023/04/27 01:40:49;;;;;;;;;;;;;;;31.64;57.39;100934.75;5125769;27;65988;-41
2023/04/27 01:43:21;;;;;;;;;;;;;;;31.66;57.76;100928.06;5102566;27;70376;-41
2023/04/27 01:45:51;;;;;;;;;;;;;;;31.68;57.54;100925.97;5126061;27;66398;-41
2023/04/27 01:48:22;;;;;;;;;;;;;;;31.70;57.53;100931.16;5129045;27;69292;-40
2023/04/27 01:50:52;;;;;;;;;;;;;;;31.74;57.67;100929.66;5116294;27;66345;-41
2023/04/27 01:53:22;;;;;;;;;;;;;;;31.76;57.24;100930.25;5112894;27;69308;-41
2023/04/27 01:55:52;;;;;;;;;;;;;;;31.78;57.05;100934.38;5133027;27;66515;-40
2023/04/27 01:58:22;;;;;;;;;;;;;;;31.80;57.42;100939.59;5116437;27;69704;-41
2023/04/27 02:00:53;;;;;;;;;;;;;;;31.83;56.99;100948.13;5108774;27;65810;-41
2023/04/27 02:03:23;;;;;;;;;;;;;;;31.86;56.99;100954.97;5118601;27;68920;-41
2023/04/27 02:05:53;;;;;;;;;;;;;;;31.89;56.69;100954.53;5140254;27;65897;-43
2023/04/27 02:08:23;;;;;;;;;;;;;;;31.92;56.79;100955.97;5135891;27;70340;-40
2023/04/27 02:10:53;;;;;;;;;;;;;;;31.94;56.83;100946.56;5107676;27;66440;-43
2023/04/27 02:13:23;;;;;;;;;;;;;;;31.96;56.81;100949.88;5111461;27;69836;-42
2023/04/27 02:15:55;;;;;;;;;;;;;;;32.00;56.72;100944.84;5133592;27;65878;-41
2023/04/27 02:18:26;;;;;;;;;;;;;;;32.02;56.63;100943.56;5115180;27;69695;-42
2023/04/27 02:20:56;;;;;;;;;;;;;;;32.05;56.56;100940.38;5111026;27;66673;-41
2023/04/27 02:23:26;;;;;;;;;;;;;;;32.08;56.40;100932.84;5116755;27;69672;-41
2023/04/27 02:25:56;;;;;;;;;;;;;;;32.11;56.29;100933.22;5115745;27;66551;-42
2023/04/27 02:28:27;;;;;;;;;;;;;;;32.13;56.04;100930.28;5113896;27;70622;-42
2023/04/27 02:30:58;;;;;;;;;;;;;;;32.16;56.07;100932.53;5138387;27;66113;-41
2023/04/27 02:33:29;;;;;;;;;;;;;;;32.19;56.02;100930.19;5078843;27;68629;-41
2023/04/27 02:35:59;;;;;;;;;;;;;;;32.23;55.83;100922.41;5127309;27;65927;-41
2023/04/27 02:38:29;;;;;;;;;;;;;;;32.25;55.67;100926.56;5119258;27;69278;-42
2023/04/27 02:41:00;;;;;;;;;;;;;;;32.28;55.51;100917.13;5140360;27;66699;-41
2023/04/27 02:43:30;;;;;;;;;;;;;;;32.30;55.48;100928.59;5134157;27;70026;-41
2023/04/27 02:46:03;;;;;;;;;;;;;;;32.33;55.44;100922.72;5133506;27;67046;-42
2023/04/27 02:48:33;;;;;;;;;;;;;;;32.34;55.49;100910.78;5117929;27;70311;-41
2023/04/27 02:51:05;;;;;;;;;;;;;;;32.37;55.27;100913.03;5113229;27;66529;-41
2023/04/27 02:53:36;;;;;;;;;;;;;;;32.40;55.00;100912.59;5089872;27;68467;-42
2023/04/27 02:56:06;;;;;;;;;;;;;;;32.42;55.05;100915.06;5122310;27;66394;-46
2023/04/27 02:58:36;;;;;;;;;;;;;;;32.43;55.20;100905.84;5126692;27;69582;-41
2023/04/27 03:01:06;;;;;;;;;;;;;;;32.44;54.96;100908.34;5120282;27;66301;-42
2023/04/27 03:03:37;;;;;;;;;;;;;;;32.47;54.99;100907.09;5109648;27;69916;-41
2023/04/27 03:06:08;;;;;;;;;;;;;;;32.48;54.78;100904.16;5119474;27;66389;-40
2023/04/27 03:08:38;;;;;;;;;;;;;;;32.51;54.70;100907.47;5090659;27;70086;-41
2023/04/27 03:11:09;;;;;;;;;;;;;;;32.54;54.97;100912.41;5121296;27;66242;-42
2023/04/27 03:13:42;;;;;;;;;;;;;;;32.57;54.83;100917.38;5128543;27;71382;-41
2023/04/27 03:16:12;;;;;;;;;;;;;;;32.58;54.72;100913.63;5111329;27;66270;-40
2023/04/27 03:18:42;;;;;;;;;;;;;;;32.59;54.59;100909.84;5124771;27;69810;-41
2023/04/27 03:21:12;;;;;;;;;;;;;;;32.62;54.28;100904.78;5117113;27;65651;-41
2023/04/27 03:23:43;;;;;;;;;;;;;;;32.65;54.50;100908.91;5102280;27;70816;-41
2023/04/27 03:26:14;;;;;;;;;;;;;;;32.67;54.32;100901.38;5128995;27;65524;-42
2023/04/27 03:28:44;;;;;;;;;;;;;;;32.70;54.25;100906.34;5104318;27;70259;-40
2023/04/27 03:31:15;;;;;;;;;;;;;;;32.72;54.45;100909.66;5127892;27;65213;-41
2023/04/27 03:33:45;;;;;;;;;;;;;;;32.74;54.39;100902.13;5123039;27;70807;-41
2023/04/27 03:36:15;;;;;;;;;;;;;;;32.75;54.26;100892.88;5128341;27;66239;-41
2023/04/27 03:38:45;;;;;;;;;;;;;;;32.77;54.17;100885.34;5106605;27;70966;-41
2023/04/27 03:41:16;;;;;;;;;;;;;;;32.82;53.97;100882.75;5124733;27;66124;-41
2023/04/27 03:43:46;;;;;;;;;;;;;;;32.86;53.97;100880.41;5105286;27;69767;-40
2023/04/27 03:46:17;;;;;;;;;;;;;;;32.86;54.09;100875.78;5127903;27;64822;-41
2023/04/27 03:48:48;;;;;;;;;;;;;;;32.88;53.88;100873.66;5102234;27;69788;-41
2023/04/27 03:51:18;;;;;;;;;;;;;;;32.91;53.88;100873.19;5102655;27;66123;-41
2023/04/27 03:53:48;;;;;;;;;;;;;;;32.94;53.80;100866.47;5105200;27;69896;-41
2023/04/27 03:56:20;;;;;;;;;;;;;;;32.96;53.88;100861.63;5131274;27;65694;-42
2023/04/27 03:58:51;;;;;;;;;;;;;;;32.96;53.77;100861.63;5099934;27;70554;-41
2023/04/27 04:01:29;;;;;;;;;;;;;;;32.98;53.73;100858.66;5106523;27;66997;-41
2023/04/27 04:04:00;;;;;;;;;;;;;;;33.00;53.76;100845.72;5107140;27;68731;-41
2023/04/27 04:06:32;;;;;;;;;;;;;;;33.05;53.65;100849.38;5104058;27;66270;-41
2023/04/27 04:09:03;;;;;;;;;;;;;;;33.08;53.59;100837.22;5108375;27;70546;-42
2023/04/27 04:11:33;;;;;;;;;;;;;;;33.09;53.43;100828.81;5106933;27;65287;-41
2023/04/27 04:14:06;;;;;;;;;;;;;;;33.12;53.57;100832.94;5111312;27;70251;-42
2023/04/27 04:16:36;;;;;;;;;;;;;;;33.11;53.36;100823.13;5107308;27;67015;-41
2023/04/27 04:19:06;;;;;;;;;;;;;;;33.15;53.10;100819.72;5114591;27;70711;-41
2023/04/27 04:21:37;;;;;;;;;;;;;;;33.18;53.14;100821.09;5109789;27;66504;-42
2023/04/27 04:24:09;;;;;;;;;;;;;;;33.21;53.24;100804.34;5102659;27;69830;-42
2023/04/27 04:26:39;;;;;;;;;;;;;;;33.23;53.12;100809.53;5121882;27;65574;-43
2023/04/27 04:29:09;;;;;;;;;;;;;;;33.24;53.16;100806.59;5132271;27;70291;-42
2023/04/27 04:31:41;;;;;;;;;;;;;;;33.26;53.19;100811.78;5119051;27;66444;-41
2023/04/27 04:34:11;;;;;;;;;;;;;;;33.27;53.21;100792.53;5116310;27;69949;-42
2023/04/27 04:36:43;;;;;;;;;;;;;;;33.29;53.05;100800.41;5125904;27;66529;-41
2023/04/27 04:39:13;;;;;;;;;;;;;;;33.32;52.91;100789.91;5103245;27;71004;-42
2023/04/27 04:41:44;;;;;;;;;;;;;;;33.35;52.69;100789.44;5110149;27;65919;-43
2023/04/27 04:44:15;;;;;;;;;;;;;;;33.38;52.85;100786.22;5100485;27;69821;-41
2023/04/27 04:46:45;;;;;;;;;;;;;;;33.42;52.58;100777.59;5107479;27;65787;-42
2023/04/27 04:49:16;;;;;;;;;;;;;;;33.44;52.80;100778.19;5083498;27;70853;-41
2023/04/27 04:51:46;;;;;;;;;;;;;;;33.46;52.54;100770.59;5102881;27;67546;-40
2023/04/27 04:54:16;;;;;;;;;;;;;;;33.50;52.31;100769.06;5120232;27;70634;-42
2023/04/27 04:56:48;;;;;;;;;;;;;;;33.51;52.30;100755.19;5099666;27;67305;-43
2023/04/27 04:59:18;;;;;;;;;;;;;;;33.54;52.23;100753.94;5122382;27;70259;-41
2023/04/27 05:01:49;;;;;;;;;;;;;;;33.56;52.02;100743.66;5105268;27;66028;-41
2023/04/27 05:04:19;;;;;;;;;;;;;;;33.57;52.08;100737.13;5120444;27;69498;-41
2023/04/27 05:06:49;;;;;;;;;;;;;;;33.61;51.96;100729.31;5120302;27;65765;-42
2023/04/27 05:09:20;;;;;;;;;;;;;;;33.64;51.88;100726.94;5121981;27;70218;-42
2023/04/27 05:11:50;;;;;;;;;;;;;;;33.66;51.80;100716.66;5113970;27;66489;-41
2023/04/27 05:14:20;;;;;;;;;;;;;;;33.68;51.95;100711.78;5117375;27;69852;-41
2023/04/27 05:16:51;;;;;;;;;;;;;;;33.69;51.69;100710.72;5118491;27;67062;-41
2023/04/27 05:19:21;;;;;;;;;;;;;;;33.72;51.67;100691.19;5117973;27;69761;-42
2023/04/27 05:21:51;;;;;;;;;;;;;;;33.73;51.41;100698.25;5118186;27;64925;-42
2023/04/27 05:24:21;;;;;;;;;;;;;;;33.74;51.52;100683.63;5111508;27;70761;-41
2023/04/27 05:26:52;;;;;;;;;;;;;;;33.78;51.35;100682.03;5124709;27;66609;-42
2023/04/27 05:29:22;;;;;;;;;;;;;;;33.78;51.50;100678.50;5133684;27;70214;-40
2023/04/27 05:31:53;;;;;;;;;;;;;;;33.83;51.46;100681.31;5120875;27;67032;-41
2023/04/27 05:34:23;;;;;;;;;;;;;;;33.85;51.18;100673.75;5120932;27;69345;-41
2023/04/27 05:36:53;;;;;;;;;;;;;;;33.88;51.52;100666.97;5126503;27;66480;-41
2023/04/27 05:39:23;;;;;;;;;;;;;;;33.88;51.26;100662.38;5123728;27;69933;-42
2023/04/27 05:41:53;;;;;;;;;;;;;;;33.90;51.20;100660.19;5130202;27;65472;-42
2023/04/27 05:44:27;;;;;;;;;;;;;;;33.94;51.40;100663.28;5120453;27;69966;-41
2023/04/27 05:46:57;;;;;;;;;;;;;;;33.96;51.31;100663.81;5129237;27;65995;-41
2023/04/27 05:49:28;;;;;;;;;;;;;;;33.99;50.74;100652.44;5119522;27;70307;-40
2023/04/27 05:51:58;;;;;;;;;;;;;;;33.63;50.84;100597.47;5127600;27;66373;-41
2023/04/27 05:54:28;;;;;;;;;;;;;;;34.03;51.00;100646.28;5101185;27;71044;-42
2023/04/27 05:56:58;;;;;;;;;;;;;;;34.05;51.00;100635.19;5134666;27;65860;-42
2023/04/27 05:59:28;;;;;;;;;;;;;;;34.10;50.62;100631.69;5125844;27;69321;-40
2023/04/27 06:01:59;;;;;;;;;;;;;;;34.12;50.68;100624.13;5122747;27;66115;-42
2023/04/27 06:04:31;;;;;;;;;;;;;;;34.16;50.59;100628.81;5125549;27;70275;-41
2023/04/27 06:07:03;;;;;;;;;;;;;;;34.19;50.60;100619.34;5124868;27;66702;-42
2023/04/27 06:09:33;;;;;;;;;;;;;;;34.22;50.51;100606.03;5125129;27;69194;-41
2023/04/27 06:12:04;;;;;;;;;;;;;;;34.26;50.39;100603.63;5129369;27;65605;-42
2023/04/27 06:14:35;;;;;;;;;;;;;;;34.26;50.24;100592.75;5122086;27;70284;-42
2023/04/27 06:17:05;;;;;;;;;;;;;;;34.29;50.59;100585.97;5100057;27;65876;-42
2023/04/27 06:19:36;;;;;;;;;;;;;;;34.34;50.55;100577.88;5125898;27;70641;-43
2023/04/27 06:22:06;;;;;;;;;;;;;;;34.36;49.99;100570.31;5119298;27;65969;-42
2023/04/27 06:24:36;;;;;;;;;;;;;;;34.39;50.31;100570.63;5126183;27;69264;-40
2023/04/27 06:27:06;;;;;;;;;;;;;;;34.42;49.83;100574.72;5123889;27;65733;-42
2023/04/27 06:29:36;;;;;;;;;;;;;;;34.44;49.95;100565.25;5133708;27;69979;-42
2023/04/27 06:32:07;;;;;;;;;;;;;;;34.47;50.15;100566.63;5125556;27;66620;-42
2023/04/27 06:34:37;;;;;;;;;;;;;;;34.51;49.97;100558.78;5131842;27;70554;-41
2023/04/27 06:37:07;;;;;;;;;;;;;;;34.53;49.73;100565.63;5124548;27;66385;-41
2023/04/27 06:39:37;;;;;;;;;;;;;;;34.55;49.55;100552.56;5127737;27;70576;-41
2023/04/27 06:42:08;;;;;;;;;;;;;;;34.57;49.64;100555.88;5126930;27;66408;-43
2023/04/27 06:44:38;;;;;;;;;;;;;;;34.60;49.76;100551.84;5105082;27;69818;-41
2023/04/27 06:47:08;;;;;;;;;;;;;;;34.62;49.32;100534.16;5124182;27;66393;-42
2023/04/27 06:49:39;;;;;;;;;;;;;;;34.65;49.75;100541.00;5100829;27;69988;-41
2023/04/27 06:52:09;;;;;;;;;;;;;;;34.69;49.68;100532.06;5123782;27;66284;-41
2023/04/27 06:54:39;;;;;;;;;;;;;;;34.73;49.46;100532.38;5119214;27;70402;-41
2023/04/27 06:57:10;;;;;;;;;;;;;;;34.78;49.11;100534.34;5106438;27;65954;-43
2023/04/27 06:59:40;;;;;;;;;;;;;;;34.81;49.42;100523.75;5117613;27;70350;-42
2023/04/27 07:02:10;;;;;;;;;;;;;;;34.52;48.80;100467.81;5124731;27;66376;-43
2023/04/27 07:04:42;;;;;;;;;;;;;;;34.89;48.90;100519.75;5101722;27;69955;-40
2023/04/27 07:07:12;;;;;;;;;;;;;;;34.94;48.76;100511.63;5119492;27;65640;-43
2023/04/27 07:09:43;;;;;;;;;;;;;;;34.97;48.73;100505.66;5119018;27;69605;-41
2023/04/27 07:12:13;;;;;;;;;;;;;;;35.00;49.18;100502.44;5122996;27;66494;-40
2023/04/27 07:14:43;;;;;;;;;;;;;;;35.04;48.94;100498.09;5123297;27;70586;-42
2023/04/27 07:17:14;;;;;;;;;;;;;;;35.08;49.17;100496.53;5121786;27;66353;-41
2023/04/27 07:19:44;;;;;;;;;;;;;;;35.12;48.43;100486.75;5126474;27;70591;-41
2023/04/27 07:22:14;;;;;;;;;;;;;;;35.16;49.00;100481.63;5117954;27;66952;-41
2023/04/27 07:24:45;;;;;;;;;;;;;;;35.19;48.60;100483.84;5125825;27;70567;-41
2023/04/27 07:27:15;;;;;;;;;;;;;;;35.23;48.89;100478.66;5120399;27;66904;-42
2023/04/27 07:29:46;;;;;;;;;;;;;;;35.24;48.31;100483.84;5124774;27;70998;-42
2023/04/27 07:32:16;;;;;;;;;;;;;;;35.28;48.76;100479.53;5129801;27;66104;-41
2023/04/27 07:34:47;;;;;;;;;;;;;;;35.31;48.31;100472.75;5123485;27;70068;-42
2023/04/27 07:37:22;;;;;;;;;;;;;;;35.33;48.05;100470.59;5123218;27;67167;-41
2023/04/27 07:39:53;;;;;;;;;;;;;;;35.38;47.91;100467.88;5111937;27;69494;-41
2023/04/27 07:42:23;;;;;;;;;;;;;;;35.43;48.28;100465.19;5121367;27;66618;-41
2023/04/27 07:44:56;;;;;;;;;;;;;;;35.45;48.10;100457.56;5104293;27;69900;-43
2023/04/27 07:47:26;;;;;;;;;;;;;;;35.49;48.31;100461.41;5121088;27;66565;-42
2023/04/27 07:49:57;;;;;;;;;;;;;;;35.50;48.32;100457.63;5115321;27;69518;-42
2023/04/27 07:52:27;;;;;;;;;;;;;;;35.54;47.85;100460.63;5126168;27;66876;-42
2023/04/27 07:54:57;;;;;;;;;;;;;;;35.58;48.21;100456.34;5119768;27;70047;-43
2023/04/27 07:57:28;;;;;;;;;;;;;;;35.60;47.64;100453.34;5121959;27;65862;-43
2023/04/27 07:59:59;;;;;;;;;;;;;;;35.63;47.85;100452.81;5100271;27;69096;-43
2023/04/27 08:02:39;;;;;;;;;;;;;;;35.67;48.06;100459.41;5108736;27;66173;-43
2023/04/27 08:05:11;;;;;;;;;;;;;;;35.69;47.44;100446.28;5118132;27;69327;-42
2023/04/27 08:07:41;;;;;;;;;;;;;;;35.70;47.91;100442.50;5121671;27;67250;-40
2023/04/27 08:10:14;;;;;;;;;;;;;;;35.71;48.15;100453.13;5101643;27;70657;-41
2023/04/27 08:12:44;;;;;;;;;;;;;;;35.73;48.02;100448.25;5103357;27;66508;-42
2023/04/27 08:15:14;;;;;;;;;;;;;;;35.78;47.83;100453.72;5123989;27;70442;-41
2023/04/27 08:17:46;;;;;;;;;;;;;;;35.79;47.93;100449.91;5099731;27;66905;-43
2023/04/27 08:20:16;;;;;;;;;;;;;;;35.79;48.18;100451.81;5123978;27;70805;-43
2023/04/27 08:22:46;;;;;;;;;;;;;;;35.82;47.92;100455.94;5122268;27;66235;-41
2023/04/27 08:25:16;;;;;;;;;;;;;;;35.84;48.21;100464.69;5124561;27;69377;-48
2023/04/27 08:27:46;;;;;;;;;;;;;;;35.86;48.17;100452.41;5102499;27;66781;-43
2023/04/27 08:30:17;;;;;;;;;;;;;;;35.86;48.01;100457.88;5124398;27;69561;-42
2023/04/27 08:32:47;;;;;;;;;;;;;;;35.89;48.07;100467.44;5122142;27;65522;-41
2023/04/27 08:35:17;;;;;;;;;;;;;;;35.89;47.62;100468.25;5123043;27;70407;-39
2023/04/27 08:37:48;;;;;;;;;;;;;;;35.89;47.86;100456.53;5115929;27;66564;-43
2023/04/27 08:40:19;;;;;;;;;;;;;;;35.90;48.25;100469.06;5122330;27;70636;-42
2023/04/27 08:42:55;;;;;;;;;;;;;;;35.88;48.14;100469.31;5101390;27;65382;-43
2023/04/27 08:45:26;;;;;;;;;;;;;;;35.89;47.96;100479.19;5118571;27;70674;-40
2023/04/27 08:47:56;;;;;;;;;;;;;;;35.90;48.27;100477.25;5120579;27;65930;-41
2023/04/27 08:50:26;;;;;;;;;;;;;;;35.88;48.20;100472.06;5103975;27;70702;-42
2023/04/27 08:52:57;;;;;;;;;;;;;;;35.90;48.34;100469.06;5101033;27;67198;-43
2023/04/27 08:55:27;;;;;;;;;;;;;;;35.89;47.83;100479.19;5099345;27;69543;-41
2023/04/27 08:57:59;;;;;;;;;;;;;;;35.89;47.80;100476.44;5113926;27;65985;-41
2023/04/27 09:00:37;;;;;;;;;;;;;;;35.90;48.29;100475.34;5120299;27;70586;-41
2023/04/27 09:03:24;;;;;;;;;;;;;;;35.90;48.40;100475.34;5114690;27;66518;-41
2023/04/27 09:05:55;;;;;;;;;;;;;;;35.88;48.16;100466.59;5118272;27;70280;-42
2023/04/27 09:08:47;;;;;;;;;;;;;;;35.90;48.44;100475.34;5099500;27;67167;-42
2023/04/27 09:11:28;;;;;;;;;;;;;;;35.87;47.80;100470.44;5122847;27;69717;-43
2023/04/27 09:13:59;;;;;;;;;;;;;;;35.86;48.48;100463.34;5126333;27;66909;-42
2023/04/27 09:16:29;;;;;;;;;;;;;;;35.84;48.53;100460.03;5108195;27;70783;-41
2023/04/27 09:19:00;;;;;;;;;;;;;;;35.76;48.76;100466.81;5091887;27;67624;-41
2023/04/27 09:21:31;;;;;;;;;;;;;;;35.75;48.77;100462.44;5123504;27;70344;-42
2023/04/27 09:24:15;;;;;;;;;;;;;;;35.65;49.93;100467.00;5107003;27;66747;-42
2023/04/27 09:26:49;;;;;;;;;;;;;;;35.63;50.86;100452.81;5117026;27;70508;-42
2023/04/27 09:29:19;;;;;;;;;;;;;;;35.69;50.57;100457.19;5120805;27;66653;-42
2023/04/27 09:31:49;;;;;;;;;;;;;;;35.71;50.81;100455.03;5118148;27;72077;-52
2023/04/27 09:34:19;;;;;;;;;;;;;;;35.73;50.89;100461.06;5118764;27;66590;-42
2023/04/27 09:36:50;;;;;;;;;;;;;;;35.74;50.93;100457.25;5099872;27;69869;-39
2023/04/27 09:39:20;;;;;;;;;;;;;;;35.70;51.07;100458.88;5112382;27;66435;-42
2023/04/27 09:41:50;;;;;;;;;;;;;;;35.66;51.50;100452.28;5126286;27;69786;-45
2023/04/27 09:44:20;;;;;;;;;;;;;;;35.45;51.52;100429.47;5131219;27;67653;-42
2023/04/27 09:46:52;;;;;;;;;;;;;;;35.57;51.76;100450.03;5129962;27;69837;-40
2023/04/27 09:49:22;;;;;;;;;;;;;;;35.55;52.05;100443.16;5135078;27;65159;-44
2023/04/27 09:51:55;;;;;;;;;;;;;;;35.56;52.01;100459.31;5108761;27;69895;-42
2023/04/27 09:54:28;;;;;;;;;;;;;;;35.55;52.41;100451.34;5129393;27;66503;-42
2023/04/27 09:57:08;;;;;;;;;;;;;;;35.60;52.93;100451.41;5110056;27;69681;-43
2023/04/27 09:59:53;;;;;;;;;;;;;;;35.65;52.11;100456.09;5109100;27;66966;-42
2023/04/27 10:02:24;;;;;;;;;;;;;;;35.67;52.57;100468.41;5126594;27;68075;-42
2023/04/27 10:05:17;;;;;;;;;;;;;;;35.67;52.44;100459.41;5128705;27;66660;-43
2023/04/27 10:07:48;;;;;;;;;;;;;;;35.67;51.82;100453.94;5122209;27;70279;-42
2023/04/27 10:10:19;;;;;;;;;;;;;;;35.66;51.73;100461.31;5130270;27;65488;-43
2023/04/27 10:12:57;;;;;;;;;;;;;;;35.65;51.72;100461.56;5132631;27;68990;-42
2023/04/27 10:15:28;;;;;;;;;;;;;;;35.66;51.64;100455.84;5132533;27;66135;-49
2023/04/27 10:18:03;;;;;;;;;;;;;;;35.66;52.18;100468.66;5133656;27;68590;-43
2023/04/27 10:20:35;;;;;;;;;;;;;;;35.63;52.07;100461.00;5134549;27;65494;-43
2023/04/27 10:23:06;;;;;;;;;;;;;;;35.62;51.54;100470.28;5132108;27;70544;-42
2023/04/27 10:25:39;;;;;;;;;;;;;;;35.61;51.90;100476.78;5131604;27;65892;-42
2023/04/27 10:28:15;;;;;;;;;;;;;;;35.61;51.80;100482.25;5133846;27;70790;-42
2023/04/27 10:30:47;;;;;;;;;;;;;;;35.61;51.85;100488.56;5142439;27;65166;-41
2023/04/27 10:33:18;;;;;;;;;;;;;;;35.58;51.76;100489.91;5141853;27;68965;-43
2023/04/27 10:35:55;;;;;;;;;;;;;;;35.57;51.99;100501.88;5141675;27;66589;-41
2023/04/27 10:38:30;;;;;;;;;;;;;;;35.56;51.92;100508.44;5141053;27;69865;-42
2023/04/27 10:41:01;;;;;;;;;;;;;;;35.54;52.01;100510.56;5141498;27;66463;-41
2023/04/27 10:43:33;;;;;;;;;;;;;;;35.53;52.13;100514.38;5126001;27;70447;-42
2023/04/27 10:46:10;;;;;;;;;;;;;;;35.52;52.01;100514.63;5143373;27;66785;-42
2023/04/27 10:48:44;;;;;;;;;;;;;;;35.50;52.19;100520.34;5130588;27;69398;-41
2023/04/27 10:51:17;;;;;;;;;;;;;;;35.49;51.75;100518.69;5138679;27;66644;-41
2023/04/27 10:53:52;;;;;;;;;;;;;;;35.47;52.22;100522.78;5141982;27;69290;-42
2023/04/27 10:56:23;;;;;;;;;;;;;;;35.46;51.83;100535.56;5135670;27;65340;-42
2023/04/27 10:58:55;;;;;;;;;;;;;;;35.43;51.96;100541.56;5137499;27;69000;-44
2023/04/27 11:01:26;;;;;;;;;;;;;;;35.43;51.97;100547.00;5141680;27;67241;-42
2023/04/27 11:03:57;;;;;;;;;;;;;;;35.40;52.33;100544.81;5140961;27;69568;-41
2023/04/27 11:06:29;;;;;;;;;;;;;;;35.39;52.49;100561.44;5143312;27;66129;-43
2023/04/27 11:08:59;;;;;;;;;;;;;;;35.38;52.13;100563.31;5136812;27;69258;-42
2023/04/27 11:11:29;;;;;;;;;;;;;;;35.36;52.61;100560.06;5133046;27;66939;-42
2023/04/27 11:14:01;;;;;;;;;;;;;;;35.34;52.17;100571.22;5135468;27;68999;-43
2023/04/27 11:16:32;;;;;;;;;;;;;;;35.33;52.73;100575.03;5132521;27;66173;-42
2023/04/27 11:19:05;;;;;;;;;;;;;;;35.32;52.25;100565.19;5114262;27;69775;-42
2023/04/27 11:21:35;;;;;;;;;;;;;;;35.29;52.37;100578.53;5133179;27;65911;-42
2023/04/27 11:24:06;;;;;;;;;;;;;;;35.29;52.33;100583.97;5134712;27;70092;-42
2023/04/27 11:26:37;;;;;;;;;;;;;;;35.28;52.30;100593.25;5115625;27;65849;-43
2023/04/27 11:29:12;;;;;;;;;;;;;;;35.25;52.49;100593.75;5140496;27;70491;-42
2023/04/27 11:31:46;;;;;;;;;;;;;;;35.23;52.62;100607.63;5141699;27;66134;-43
2023/04/27 11:34:22;;;;;;;;;;;;;;;35.21;53.04;100614.44;5140454;27;69989;-42
2023/04/27 11:37:00;;;;;;;;;;;;;;;35.19;52.66;100616.56;5135702;27;65174;-42
2023/04/27 11:39:37;;;;;;;;;;;;;;;35.17;53.14;100619.56;5135793;27;70457;-43
2023/04/27 11:42:33;;;;;;;;;;;;;;;35.13;53.09;100630.19;5137445;27;68050;-41
2023/04/27 11:45:07;;;;;;;;;;;;;;;35.12;52.85;100639.41;5127602;27;70475;-43
2023/04/27 11:47:41;;;;;;;;;;;;;;;35.13;53.01;100634.78;5133261;27;66861;-42
2023/04/27 11:50:11;;;;;;;;;;;;;;;35.13;53.09;100641.09;5131982;27;70589;-43
2023/04/27 11:52:41;;;;;;;;;;;;;;;35.10;52.87;100638.88;5113941;27;65879;-41
2023/04/27 11:55:14;;;;;;;;;;;;;;;35.07;52.89;100633.09;5131024;27;69991;-42
2023/04/27 11:57:45;;;;;;;;;;;;;;;34.65;53.36;100577.22;5132230;27;64804;-42
2023/04/27 12:00:16;;;;;;;;;;;;;;;35.01;53.00;100642.25;5133481;27;70016;-45
2023/04/27 12:02:46;;;;;;;;;;;;;;;35.01;53.06;100647.69;5134358;27;65534;-43
2023/04/27 12:05:16;;;;;;;;;;;;;;;35.00;53.04;100646.88;5133363;27;69641;-42
2023/04/27 12:07:47;;;;;;;;;;;;;;;34.97;53.25;100658.31;5136557;27;67016;-42
2023/04/27 12:10:17;;;;;;;;;;;;;;;34.96;53.37;100667.53;5130369;27;70221;-42
2023/04/27 12:12:47;;;;;;;;;;;;;;;34.94;53.94;100686.06;5130067;27;66799;-42
2023/04/27 12:15:17;;;;;;;;;;;;;;;34.91;53.79;100676.50;5125794;27;69670;-42
2023/04/27 12:17:48;;;;;;;;;;;;;;;34.91;53.78;100681.13;5104208;27;66764;-41
2023/04/27 12:20:18;;;;;;;;;;;;;;;34.90;53.51;100677.53;5131340;27;69723;-43
2023/04/27 12:22:49;;;;;;;;;;;;;;;34.89;53.51;100683.28;5124707;27;66317;-43
2023/04/27 12:25:20;;;;;;;;;;;;;;;34.86;53.33;100689.22;5101114;27;70198;-50
2023/04/27 12:27:51;;;;;;;;;;;;;;;34.85;53.31;100690.28;5128443;27;66957;-42
2023/04/27 12:30:22;;;;;;;;;;;;;;;34.84;53.14;100702.28;5119630;27;70230;-42
2023/04/27 12:32:53;;;;;;;;;;;;;;;34.81;53.59;100708.22;5114472;27;66089;-43
2023/04/27 12:35:23;;;;;;;;;;;;;;;34.79;53.49;100704.91;5120756;27;70927;-43
2023/04/27 12:37:54;;;;;;;;;;;;;;;34.78;53.39;100695.94;5101708;27;67079;-42
2023/04/27 12:40:24;;;;;;;;;;;;;;;34.77;53.56;100696.16;5115396;27;70355;-43
2023/04/27 12:42:55;;;;;;;;;;;;;;;34.74;53.61;100691.22;5121838;27;66353;-42
2023/04/27 12:45:28;;;;;;;;;;;;;;;34.70;53.09;100693.63;5119977;27;70429;-42
2023/04/27 12:47:59;;;;;;;;;;;;;;;34.68;53.52;100704.75;5133191;27;66153;-42
2023/04/27 12:50:32;;;;;;;;;;;;;;;34.67;53.26;100708.56;5101563;27;70139;-41
2023/04/27 12:53:02;;;;;;;;;;;;;;;34.68;53.34;100698.50;5124196;27;66018;-42
2023/04/27 12:55:32;;;;;;;;;;;;;;;34.63;53.55;100704.72;5124267;27;69925;-41